Time;durP1;ratioP1;P1;durP2;ratioP2;P2;SDS_P1;SDS_P2;PMS_P1;PMS_P2;Temp;Humidity;BMP_temperature;BMP_pressure;BME280_temperature;BME280_humidity;BME280_pressure;Samples;Min_cycle;Max_cycle;Signal;HPM_P1;HPM_P2
2022/12/27 00:00:21;;;;;;;12.30;3.08;;;4.10;99.90;;;;;;5070961;28;20406;-63
2022/12/27 00:02:47;;;;;;;11.95;2.58;;;4.10;99.90;;;;;;5037240;28;20094;-63
2022/12/27 00:05:14;;;;;;;9.68;1.85;;;4.10;99.90;;;;;;5071786;28;20043;-63
2022/12/27 00:07:40;;;;;;;13.10;4.53;;;4.10;99.90;;;;;;5054536;28;20537;-63
2022/12/27 00:10:08;;;;;;;11.15;3.60;;;4.10;99.90;;;;;;5057965;28;20048;-63
2022/12/27 00:12:34;;;;;;;14.95;3.42;;;4.10;99.90;;;;;;5076097;28;20043;-62
2022/12/27 00:14:59;;;;;;;8.57;2.05;;;4.10;99.90;;;;;;5057075;28;20041;-63
2022/12/27 00:17:26;;;;;;;11.43;3.08;;;4.10;99.90;;;;;;5075583;28;20119;-63
2022/12/27 00:19:51;;;;;;;11.57;2.78;;;4.10;99.90;;;;;;5057780;28;20481;-63
2022/12/27 00:22:17;;;;;;;8.73;2.65;;;4.10;99.90;;;;;;5074853;28;20040;-63
2022/12/27 00:24:43;;;;;;;10.45;2.70;;;4.00;99.90;;;;;;5057761;28;20060;-63
2022/12/27 00:27:08;;;;;;;9.25;2.70;;;4.10;99.90;;;;;;5075613;28;20059;-63
2022/12/27 00:29:34;;;;;;;13.60;3.40;;;4.10;99.90;;;;;;5057491;28;20127;-63
2022/12/27 00:31:59;;;;;;;9.20;2.40;;;4.20;99.90;;;;;;5074283;28;20048;-63
2022/12/27 00:34:25;;;;;;;11.07;2.42;;;4.20;99.90;;;;;;5075266;28;20039;-63
2022/12/27 00:36:51;;;;;;;10.93;2.85;;;4.20;99.90;;;;;;5074387;28;20037;-63
2022/12/27 00:39:16;;;;;;;12.63;3.28;;;4.30;99.90;;;;;;5074037;28;20072;-62
2022/12/27 00:41:42;;;;;;;9.23;2.60;;;4.30;99.90;;;;;;5057668;28;20131;-63
2022/12/27 00:44:08;;;;;;;10.23;2.55;;;4.40;99.90;;;;;;5074437;28;20032;-63
2022/12/27 00:46:33;;;;;;;18.77;2.80;;;4.50;99.90;;;;;;5057456;28;20044;-63
2022/12/27 00:48:59;;;;;;;8.48;2.53;;;4.40;99.90;;;;;;5073825;28;20045;-62
2022/12/27 00:51:25;;;;;;;10.10;2.97;;;4.40;99.90;;;;;;5072892;28;20067;-63
2022/12/27 00:53:52;;;;;;;10.25;2.55;;;4.50;99.90;;;;;;5073662;28;20382;-63
2022/12/27 00:56:20;;;;;;;9.90;2.42;;;4.50;99.90;;;;;;5074486;28;20048;-63
2022/12/27 00:58:46;;;;;;;10.27;2.13;;;4.50;99.90;;;;;;5057096;28;20469;-60
2022/12/27 01:01:18;;;;;;;9.57;2.50;;;4.50;99.90;;;;;;5056879;28;20048;-60
2022/12/27 01:03:44;;;;;;;13.23;2.55;;;4.50;99.90;;;;;;5056170;28;20047;-60
2022/12/27 01:06:13;;;;;;;8.82;2.65;;;4.60;99.90;;;;;;5056783;28;20032;-60
2022/12/27 01:08:39;;;;;;;12.18;2.95;;;4.60;99.90;;;;;;5056923;28;20040;-60
2022/12/27 01:11:06;;;;;;;12.18;3.58;;;4.60;99.90;;;;;;5056207;28;20045;-60
2022/12/27 01:13:32;;;;;;;14.90;2.28;;;4.70;99.90;;;;;;5056826;28;20045;-60
2022/12/27 01:15:58;;;;;;;8.20;1.95;;;4.60;99.90;;;;;;5074536;28;20040;-60
2022/12/27 01:18:24;;;;;;;13.65;2.83;;;4.70;99.90;;;;;;5073769;28;20041;-60
2022/12/27 01:20:50;;;;;;;9.10;2.45;;;4.70;99.90;;;;;;5074343;28;20162;-60
2022/12/27 01:23:16;;;;;;;6.18;2.20;;;4.80;99.90;;;;;;5074729;28;20111;-60
2022/12/27 01:25:42;;;;;;;8.27;2.30;;;4.90;99.90;;;;;;5055779;28;20040;-60
2022/12/27 01:28:07;;;;;;;11.20;2.40;;;5.00;99.90;;;;;;5074260;28;20103;-60
2022/12/27 01:30:33;;;;;;;10.82;2.83;;;4.90;99.90;;;;;;5074524;28;20036;-60
2022/12/27 01:32:59;;;;;;;9.55;2.83;;;5.00;99.90;;;;;;5072257;28;20080;-60
2022/12/27 01:35:24;;;;;;;11.13;2.22;;;5.00;99.90;;;;;;5056286;28;20363;-60
2022/12/27 01:37:50;;;;;;;9.77;3.47;;;5.00;99.90;;;;;;5072994;28;20047;-60
2022/12/27 01:40:16;;;;;;;11.80;3.08;;;5.00;99.90;;;;;;5073488;28;20040;-60
2022/12/27 01:42:51;;;;;;;9.40;2.83;;;5.00;99.90;;;;;;5074021;28;20037;-60
2022/12/27 01:45:30;;;;;;;14.25;2.75;;;5.10;99.90;;;;;;5056147;28;20033;-61
2022/12/27 01:47:55;;;;;;;11.35;2.25;;;5.10;99.90;;;;;;5055887;28;20052;-60
2022/12/27 01:50:27;;;;;;;11.30;2.58;;;5.20;99.90;;;;;;5072741;28;20485;-61
2022/12/27 01:52:56;;;;;;;11.85;2.50;;;5.10;99.90;;;;;;5073160;28;20049;-60
2022/12/27 01:55:41;;;;;;;10.02;2.00;;;5.10;99.90;;;;;;5055916;28;20055;-61
2022/12/27 01:58:21;;;;;;;6.20;2.47;;;5.20;99.90;;;;;;5074135;28;20044;-61
2022/12/27 02:00:57;;;;;;;9.85;2.63;;;5.20;99.90;;;;;;5038719;28;20082;-60
2022/12/27 02:03:38;;;;;;;8.23;2.65;;;5.30;99.90;;;;;;5055844;28;20044;-61
2022/12/27 02:06:07;;;;;;;12.63;2.72;;;5.30;99.90;;;;;;5073614;28;20037;-61
2022/12/27 02:09:01;;;;;;;8.20;2.15;;;5.40;99.90;;;;;;5073234;28;20041;-60
2022/12/27 02:11:51;;;;;;;21.67;3.22;;;5.40;99.90;;;;;;5073593;28;20071;-61
2022/12/27 02:14:28;;;;;;;8.40;3.00;;;5.50;99.90;;;;;;5054794;28;20032;-61
2022/12/27 02:16:56;;;;;;;12.68;3.08;;;5.50;99.90;;;;;;5072070;28;20072;-61
2022/12/27 02:19:40;;;;;;;11.57;2.10;;;5.50;99.90;;;;;;5055579;28;20076;-61
2022/12/27 02:25:49;;;;;;;10.38;2.22;;;5.40;99.90;;;;;;5052040;28;20393;-61
2022/12/27 02:28:48;;;;;;;10.50;2.22;;;5.40;99.90;;;;;;5072392;28;20057;-63
2022/12/27 02:31:21;;;;;;;6.47;1.73;;;5.40;99.90;;;;;;5071166;28;20120;-61
2022/12/27 02:33:49;;;;;;;12.30;2.83;;;5.50;99.90;;;;;;5055255;28;20072;-61
2022/12/27 02:36:28;;;;;;;7.28;1.73;;;5.50;99.90;;;;;;5072626;28;20040;-61
2022/12/27 02:38:57;;;;;;;11.55;3.92;;;5.50;99.90;;;;;;5055344;28;20036;-60
2022/12/27 02:57:07;;;;;;;8.55;2.10;;;5.60;99.90;;;;;;5054984;28;20084;-62
2022/12/27 02:58:48;;;;;;;11.35;2.53;;;5.60;99.90;;;;;;5055197;28;20136;-61
2022/12/27 03:04:38;;;;;;;12.50;2.65;;;5.70;99.90;;;;;;5071991;28;20052;-61
2022/12/27 03:07:24;;;;;;;13.43;3.15;;;5.60;99.90;;;;;;5072498;28;20036;-61
2022/12/27 03:16:05;;;;;;;9.93;3.10;;;5.50;99.90;;;;;;5054454;28;20048;-61
2022/12/27 03:18:39;;;;;;;10.43;2.20;;;5.50;99.90;;;;;;5053789;28;20063;-61
2022/12/27 03:26:43;;;;;;;8.65;2.40;;;5.40;99.90;;;;;;5054468;28;20053;-60
2022/12/27 03:34:51;;;;;;;13.75;3.53;;;5.30;99.90;;;;;;5054051;28;20091;-61
2022/12/27 03:40:28;;;;;;;15.93;3.25;;;5.20;99.90;;;;;;5071448;28;20110;-61
2022/12/27 03:43:11;;;;;;;10.13;2.63;;;5.20;99.90;;;;;;5053545;28;20389;-61
2022/12/27 03:48:54;;;;;;;12.73;3.38;;;5.20;99.90;;;;;;5054757;28;20102;-60
2022/12/27 03:51:23;;;;;;;8.25;2.78;;;5.10;99.90;;;;;;5072013;28;20047;-61
2022/12/27 03:53:53;;;;;;;9.70;3.42;;;5.10;99.90;;;;;;5053417;28;20116;-61
2022/12/27 03:56:19;;;;;;;15.38;3.53;;;5.10;99.90;;;;;;5053981;28;20614;-60
2022/12/27 03:58:45;;;;;;;13.43;2.95;;;5.10;99.90;;;;;;5071868;28;20044;-60
2022/12/27 04:01:11;;;;;;;9.10;2.60;;;5.10;99.90;;;;;;5071143;28;20029;-60
2022/12/27 04:03:36;;;;;;;13.30;2.80;;;5.10;99.90;;;;;;5072296;28;20037;-60
2022/12/27 04:06:02;;;;;;;9.95;2.67;;;5.00;99.90;;;;;;5071731;28;20119;-60
2022/12/27 04:35:49;;;;;;;13.00;2.70;;;4.70;99.90;;;;;;5070570;28;20052;-60
2022/12/27 04:38:14;;;;;;;8.80;2.40;;;4.70;99.90;;;;;;5071642;28;20450;-60
2022/12/27 04:54:56;;;;;;;14.70;4.60;;;4.50;99.90;;;;;;5056059;28;20106;-60
2022/12/27 04:57:23;;;;;;;13.88;2.92;;;4.40;99.90;;;;;;5074025;28;20087;-60
2022/12/27 05:02:33;;;;;;;13.60;3.00;;;4.30;99.90;;;;;;5074273;28;20119;-60
2022/12/27 05:04:58;;;;;;;13.75;3.00;;;4.30;99.90;;;;;;5040402;28;20044;-60
2022/12/27 05:15:37;;;;;;;12.23;3.35;;;4.00;99.90;;;;;;5057295;28;20051;-60
2022/12/27 05:18:03;;;;;;;16.02;3.38;;;4.00;99.90;;;;;;5074039;28;20470;-60
2022/12/27 05:20:28;;;;;;;12.88;3.42;;;4.00;99.90;;;;;;5074841;28;20596;-60
2022/12/27 05:25:43;;;;;;;16.08;3.53;;;4.00;99.90;;;;;;5055943;28;20132;-60
2022/12/27 05:28:10;;;;;;;10.38;3.47;;;4.00;99.90;;;;;;5056442;28;20387;-60
2022/12/27 05:30:38;;;;;;;11.63;3.20;;;4.00;99.90;;;;;;5056371;28;20054;-60
2022/12/27 05:33:05;;;;;;;14.77;3.97;;;4.00;99.90;;;;;;5074066;28;20552;-60
2022/12/27 05:35:32;;;;;;;16.90;3.17;;;4.00;99.90;;;;;;5074401;28;20486;-60
2022/12/27 05:37:58;;;;;;;13.13;3.15;;;4.00;99.90;;;;;;5055624;28;20598;-60
2022/12/27 05:40:24;;;;;;;18.67;3.20;;;4.00;99.90;;;;;;5039623;28;20119;-60
2022/12/27 05:42:50;;;;;;;10.35;3.38;;;4.10;99.90;;;;;;5073027;28;20385;-60
2022/12/27 05:45:16;;;;;;;21.20;3.53;;;4.20;99.90;;;;;;5055601;28;20033;-60
2022/12/27 05:47:42;;;;;;;11.32;2.80;;;4.30;99.90;;;;;;5056464;28;20437;-60
2022/12/27 05:50:08;;;;;;;7.75;2.95;;;4.40;99.90;;;;;;5039660;28;20095;-60
2022/12/27 05:52:34;;;;;;;11.80;2.40;;;4.50;99.90;;;;;;5055578;28;20424;-60
2022/12/27 05:55:00;;;;;;;9.75;2.33;;;4.50;99.90;;;;;;5072437;28;20090;-60
2022/12/27 05:57:25;;;;;;;7.75;1.92;;;4.50;99.90;;;;;;5055833;28;20040;-60
2022/12/27 05:59:51;;;;;;;7.85;2.20;;;4.50;99.90;;;;;;5072148;28;20036;-60
2022/12/27 06:02:17;;;;;;;11.50;2.28;;;4.50;99.90;;;;;;5073759;28;20033;-60
2022/12/27 06:04:42;;;;;;;8.82;2.75;;;4.40;99.90;;;;;;5073252;28;20039;-60
2022/12/27 06:07:12;;;;;;;5.63;1.83;;;4.40;99.90;;;;;;5071407;28;20044;-60
2022/12/27 06:09:39;;;;;;;11.63;2.20;;;4.30;99.90;;;;;;5056181;28;20457;-60
2022/12/27 06:12:05;;;;;;;10.43;2.20;;;4.30;99.90;;;;;;5073602;28;20082;-60
2022/12/27 06:14:30;;;;;;;7.43;2.25;;;4.30;99.90;;;;;;5073006;28;20047;-60
2022/12/27 06:16:56;;;;;;;8.55;2.50;;;4.20;99.90;;;;;;5073473;28;20037;-60
2022/12/27 06:19:22;;;;;;;12.15;2.85;;;4.20;99.90;;;;;;5073324;28;20115;-60
2022/12/27 06:21:48;;;;;;;10.38;2.60;;;4.10;99.90;;;;;;5038224;28;20386;-60
2022/12/27 06:24:14;;;;;;;8.88;2.35;;;4.00;99.90;;;;;;5071832;28;20501;-60
2022/12/27 06:26:41;;;;;;;11.77;2.70;;;3.90;99.90;;;;;;5048344;28;20047;-61
2022/12/27 06:29:08;;;;;;;9.60;2.97;;;3.80;99.90;;;;;;5072053;28;20055;-60
2022/12/27 06:31:36;;;;;;;11.50;2.53;;;3.80;99.90;;;;;;5039552;28;20055;-60
2022/12/27 06:34:02;;;;;;;13.65;3.10;;;3.70;99.90;;;;;;5062782;28;20124;-60
2022/12/27 06:36:31;;;;;;;9.05;2.88;;;3.60;99.90;;;;;;5035165;28;20052;-61
2022/12/27 06:38:58;;;;;;;10.00;2.85;;;3.60;99.90;;;;;;5064749;28;20414;-60
2022/12/27 06:41:24;;;;;;;11.20;2.90;;;3.60;99.90;;;;;;5072467;28;20063;-60
2022/12/27 06:43:54;;;;;;;16.77;3.42;;;3.50;99.90;;;;;;5060432;28;20107;-60
2022/12/27 06:46:20;;;;;;;10.90;3.80;;;3.50;99.90;;;;;;5072291;28;20036;-60
2022/12/27 06:48:46;;;;;;;11.23;2.90;;;3.50;99.90;;;;;;5072273;28;20120;-60
2022/12/27 06:51:13;;;;;;;9.98;3.10;;;3.50;99.90;;;;;;5071902;28;20398;-61
2022/12/27 06:53:39;;;;;;;11.80;2.67;;;3.40;99.90;;;;;;5072938;28;20048;-61
2022/12/27 06:56:06;;;;;;;11.57;3.10;;;3.40;99.90;;;;;;5071445;28;20040;-60
2022/12/27 06:58:32;;;;;;;12.95;3.13;;;3.30;99.90;;;;;;5055060;28;20040;-60
2022/12/27 07:01:05;;;;;;;9.27;2.45;;;3.30;99.90;;;;;;5054794;28;20043;-60
2022/12/27 07:03:30;;;;;;;17.35;3.35;;;3.30;99.90;;;;;;5038792;28;20401;-60
2022/12/27 07:05:56;;;;;;;9.50;2.50;;;3.30;99.90;;;;;;5054694;28;20037;-60
2022/12/27 07:08:22;;;;;;;7.68;2.47;;;3.20;99.90;;;;;;5053701;28;20040;-60
2022/12/27 07:10:47;;;;;;;13.63;3.28;;;3.20;99.90;;;;;;5054270;28;20036;-60
2022/12/27 07:13:13;;;;;;;17.83;3.25;;;3.20;99.90;;;;;;5038141;28;20040;-60
2022/12/27 07:15:38;;;;;;;8.52;2.40;;;3.20;99.90;;;;;;5054639;28;20485;-60
2022/12/27 07:18:04;;;;;;;8.43;3.03;;;3.20;99.90;;;;;;5070189;28;20397;-60
2022/12/27 07:20:30;;;;;;;9.77;2.28;;;3.20;99.90;;;;;;5072424;28;20036;-60
2022/12/27 07:22:57;;;;;;;13.82;3.00;;;3.30;99.90;;;;;;5071563;28;20413;-60
2022/12/27 07:25:23;;;;;;;9.88;3.13;;;3.30;99.90;;;;;;5060004;28;20555;-61
2022/12/27 07:27:48;;;;;;;8.32;2.65;;;3.30;99.90;;;;;;5071860;28;20053;-60
2022/12/27 07:30:14;;;;;;;8.88;3.05;;;3.30;99.90;;;;;;5071073;28;20087;-60
2022/12/27 07:32:40;;;;;;;9.43;2.65;;;3.30;99.90;;;;;;5062368;28;20037;-60
2022/12/27 07:35:06;;;;;;;11.68;2.78;;;3.30;99.90;;;;;;5071858;28;20036;-60
2022/12/27 07:37:31;;;;;;;9.90;2.60;;;3.30;99.90;;;;;;5053506;28;20036;-60
2022/12/27 07:39:57;;;;;;;14.70;3.22;;;3.30;99.90;;;;;;5071299;28;20097;-60
2022/12/27 07:42:22;;;;;;;12.00;3.47;;;3.20;99.90;;;;;;5069086;28;20036;-60
2022/12/27 07:44:48;;;;;;;12.88;2.92;;;3.20;99.90;;;;;;5037542;28;20074;-60
2022/12/27 07:47:14;;;;;;;17.13;5.13;;;3.20;99.90;;;;;;5067540;28;20048;-61
2022/12/27 07:49:40;;;;;;;10.63;3.60;;;3.20;99.90;;;;;;5069603;28;20113;-61
2022/12/27 07:52:06;;;;;;;10.35;3.45;;;3.20;99.90;;;;;;5050152;28;20044;-61
2022/12/27 07:54:32;;;;;;;14.27;3.85;;;3.10;99.90;;;;;;5050964;28;20401;-60
2022/12/27 07:56:57;;;;;;;11.27;3.50;;;3.10;99.90;;;;;;5069324;28;20045;-60
2022/12/27 07:59:23;;;;;;;13.57;3.22;;;3.10;99.90;;;;;;5065809;28;20363;-60
2022/12/27 08:02:04;;;;;;;12.93;3.70;;;3.10;99.90;;;;;;5053517;28;20040;-60
2022/12/27 08:04:31;;;;;;;13.13;3.50;;;3.10;99.90;;;;;;5050824;28;20037;-60
2022/12/27 08:07:11;;;;;;;11.82;3.35;;;3.00;99.90;;;;;;5051847;28;20072;-60
2022/12/27 08:09:39;;;;;;;11.23;3.65;;;3.00;99.90;;;;;;5069735;28;20040;-60
2022/12/27 08:12:06;;;;;;;12.73;3.40;;;3.00;99.90;;;;;;5069582;28;20040;-60
2022/12/27 08:14:31;;;;;;;13.65;3.33;;;2.90;99.90;;;;;;5067483;28;20047;-61
2022/12/27 08:17:21;;;;;;;13.43;3.40;;;3.00;99.90;;;;;;5068465;28;20036;-61
2022/12/27 08:19:49;;;;;;;12.93;3.30;;;2.90;99.90;;;;;;5068362;28;20090;-60
2022/12/27 08:22:15;;;;;;;11.73;3.80;;;2.90;99.90;;;;;;5066358;28;20075;-61
2022/12/27 08:24:42;;;;;;;13.55;3.97;;;2.90;99.90;;;;;;5051941;28;20055;-60
2022/12/27 08:27:09;;;;;;;12.13;2.85;;;3.00;99.90;;;;;;5050710;28;20064;-61
2022/12/27 08:29:35;;;;;;;10.35;3.38;;;3.00;99.90;;;;;;5054480;28;20405;-60
2022/12/27 08:32:01;;;;;;;7.07;2.35;;;3.00;99.90;;;;;;5056140;28;20187;-61
2022/12/27 08:34:27;;;;;;;9.25;3.42;;;3.00;99.90;;;;;;5054613;28;20040;-60
2022/12/27 08:36:52;;;;;;;12.30;3.60;;;3.00;99.90;;;;;;5055408;28;20048;-61
2022/12/27 08:39:18;;;;;;;15.98;3.15;;;3.10;99.90;;;;;;5073139;28;20041;-61
2022/12/27 08:41:44;;;;;;;9.77;2.83;;;3.10;99.90;;;;;;5072246;28;20041;-60
2022/12/27 08:44:11;;;;;;;8.85;2.50;;;3.10;99.90;;;;;;5070410;28;20094;-60
2022/12/27 08:46:36;;;;;;;15.52;4.03;;;3.20;99.90;;;;;;5070916;28;20040;-61
2022/12/27 08:49:03;;;;;;;17.20;3.58;;;3.20;99.90;;;;;;5070807;28;20766;-60
2022/12/27 08:51:29;;;;;;;10.40;3.00;;;3.30;99.90;;;;;;5072328;28;20501;-61
2022/12/27 08:53:55;;;;;;;14.38;3.58;;;3.30;99.90;;;;;;5056647;28;20041;-61
2022/12/27 08:56:20;;;;;;;8.95;2.42;;;3.40;99.90;;;;;;5082033;28;20049;-61
2022/12/27 08:58:49;;;;;;;9.57;3.05;;;3.40;99.90;;;;;;5071173;28;20036;-61
2022/12/27 09:01:15;;;;;;;16.45;4.40;;;3.50;99.90;;;;;;5064378;28;20500;-60
2022/12/27 09:03:41;;;;;;;10.27;3.22;;;3.60;99.90;;;;;;5069788;28;20032;-61
2022/12/27 09:06:16;;;;;;;11.82;3.15;;;3.70;99.90;;;;;;5056096;28;20040;-60
2022/12/27 09:08:43;;;;;;;12.70;3.65;;;3.70;99.90;;;;;;5056150;28;20047;-61
2022/12/27 09:11:23;;;;;;;10.80;2.83;;;3.80;99.90;;;;;;5061488;28;20482;-61
2022/12/27 09:13:49;;;;;;;11.13;3.40;;;3.90;99.90;;;;;;5054496;28;20048;-61
2022/12/27 09:16:20;;;;;;;10.13;2.72;;;4.00;99.90;;;;;;5056543;28;20048;-61
2022/12/27 09:18:51;;;;;;;10.52;2.50;;;4.00;99.90;;;;;;5074135;28;20044;-60
2022/12/27 09:21:18;;;;;;;15.32;3.17;;;4.20;99.90;;;;;;5067616;28;20041;-61
2022/12/27 09:23:44;;;;;;;11.40;2.60;;;4.20;99.90;;;;;;5074167;28;20111;-61
2022/12/27 09:26:22;;;;;;;11.35;2.90;;;4.30;99.90;;;;;;5074420;28;20045;-61
2022/12/27 09:28:48;;;;;;;8.90;2.90;;;4.40;99.90;;;;;;5074334;28;20455;-60
2022/12/27 09:31:15;;;;;;;10.07;2.40;;;4.50;99.90;;;;;;5072621;28;20048;-60
2022/12/27 09:33:42;;;;;;;9.98;3.05;;;4.60;99.90;;;;;;5074188;28;20052;-61
2022/12/27 09:36:11;;;;;;;15.07;3.42;;;4.60;99.90;;;;;;5071334;28;20172;-60
2022/12/27 09:38:37;;;;;;;9.85;2.60;;;4.70;99.90;;;;;;5068123;28;20119;-61
2022/12/27 09:41:17;;;;;;;11.98;2.97;;;4.70;99.90;;;;;;5072817;28;20062;-60
2022/12/27 09:44:03;;;;;;;10.43;2.40;;;4.70;99.90;;;;;;5072755;28;20406;-62
2022/12/27 09:47:13;;;;;;;14.38;3.00;;;4.70;99.90;;;;;;5056552;28;20071;-61
2022/12/27 09:49:49;;;;;;;8.98;2.50;;;4.80;99.90;;;;;;5057258;28;20382;-61
2022/12/27 09:52:28;;;;;;;8.98;2.55;;;4.80;99.90;;;;;;5039002;28;20045;-61
2022/12/27 09:55:16;;;;;;;10.82;2.90;;;4.80;99.90;;;;;;5074158;28;20048;-61
2022/12/27 09:57:44;;;;;;;10.25;3.50;;;4.80;99.90;;;;;;5056049;28;20080;-61
2022/12/27 10:00:19;;;;;;;11.48;3.10;;;4.80;99.90;;;;;;5073056;28;20484;-61
2022/12/27 10:02:49;;;;;;;;;;;4.90;99.90;;;;;;5056082;28;20036;-61
2022/12/27 10:05:31;;;;;;;10.52;2.60;;;4.90;99.90;;;;;;5055185;28;19978;-61
2022/12/27 10:08:11;;;;;;;8.00;2.72;;;4.90;99.90;;;;;;5055839;28;20036;-61
2022/12/27 10:10:40;;;;;;;13.30;3.10;;;5.00;99.90;;;;;;5056179;28;20040;-61
2022/12/27 10:13:22;;;;;;;15.43;3.65;;;5.00;99.90;;;;;;5072623;28;20374;-61
2022/12/27 10:16:08;;;;;;;13.27;3.30;;;5.10;99.90;;;;;;5055435;28;20055;-61
2022/12/27 10:19:17;;;;;;;14.00;2.90;;;5.20;99.90;;;;;;5073909;28;20072;-61
2022/12/27 10:22:11;;;;;;;11.70;2.88;;;5.30;99.90;;;;;;5070955;28;20040;-61
2022/12/27 10:24:49;;;;;;;12.75;2.90;;;5.40;99.90;;;;;;5073823;28;20044;-61
2022/12/27 10:27:22;;;;;;;11.38;2.63;;;5.40;99.90;;;;;;5044339;28;20053;-61
2022/12/27 10:29:52;;;;;;;12.00;2.45;;;5.50;99.90;;;;;;5033209;28;20544;-61
2022/12/27 10:32:18;;;;;;;9.55;2.95;;;5.50;99.90;;;;;;5033631;28;20037;-61
2022/12/27 10:34:44;;;;;;;11.73;2.97;;;5.50;99.90;;;;;;5032417;28;20501;-61
2022/12/27 10:37:14;;;;;;;11.45;2.60;;;5.50;99.90;;;;;;5033198;28;20037;-61
2022/12/27 10:39:41;;;;;;;9.13;2.60;;;5.50;99.90;;;;;;5032525;28;20429;-61
2022/12/27 10:42:31;;;;;;;10.95;2.33;;;5.60;99.90;;;;;;5031523;28;20041;-61
2022/12/27 10:45:35;;;;;;;10.30;3.05;;;5.70;99.90;;;;;;5031917;28;20045;-61
2022/12/27 10:48:27;;;;;;;10.65;2.50;;;5.90;99.90;;;;;;5031215;28;20057;-61
2022/12/27 10:51:19;;;;;;;10.30;2.50;;;6.00;99.90;;;;;;5032881;28;20041;-61
2022/12/27 10:53:45;;;;;;;6.32;2.10;;;6.00;99.90;;;;;;5028803;28;20049;-61
2022/12/27 10:56:29;;;;;;;12.50;2.83;;;6.10;99.90;;;;;;5014483;28;20041;-61
2022/12/27 10:59:25;;;;;;;7.90;2.08;;;6.20;99.90;;;;;;5032429;28;20077;-61
2022/12/27 11:02:00;;;;;;;12.07;2.53;;;6.30;99.90;;;;;;5010865;28;20049;-61
2022/12/27 11:04:27;;;;;;;10.63;2.05;;;6.30;99.90;;;;;;5031755;28;20037;-61
2022/12/27 11:06:58;;;;;;;11.15;2.60;;;6.30;99.90;;;;;;5032744;28;20100;-61
2022/12/27 11:09:33;;;;;;;10.35;2.58;;;6.30;99.90;;;;;;5031786;28;20510;-61
2022/12/27 11:12:23;;;;;;;11.10;2.67;;;6.40;99.90;;;;;;5031784;28;20080;-61
2022/12/27 11:15:01;;;;;;;9.93;2.47;;;6.50;99.90;;;;;;5031434;28;20120;-61
2022/12/27 11:17:52;;;;;;;10.38;2.97;;;6.50;99.90;;;;;;5013966;28;20231;-61
2022/12/27 11:20:39;;;;;;;9.18;2.40;;;6.50;99.90;;;;;;5031278;28;20053;-61
2022/12/27 11:23:08;;;;;;;8.80;2.47;;;6.50;99.90;;;;;;5030119;28;20045;-61
2022/12/27 11:25:36;;;;;;;7.75;2.50;;;6.60;99.90;;;;;;5031533;28;20037;-61
2022/12/27 11:28:33;;;;;;;10.98;2.72;;;6.60;99.90;;;;;;5030906;28;20057;-61
2022/12/27 11:31:03;;;;;;;8.07;2.40;;;6.70;99.90;;;;;;5031887;28;20045;-61
2022/12/27 11:33:48;;;;;;;10.98;2.85;;;6.90;99.90;;;;;;5031494;28;20545;-61
2022/12/27 11:36:22;;;;;;;8.30;2.80;;;6.90;99.90;;;;;;5030990;28;20052;-60
2022/12/27 11:38:49;;;;;;;8.20;2.20;;;6.90;99.90;;;;;;5032460;28;20069;-61
2022/12/27 11:41:36;;;;;;;6.10;2.70;;;6.90;99.90;;;;;;5032360;28;20076;-61
2022/12/27 11:44:15;;;;;;;9.63;2.80;;;6.80;99.90;;;;;;5030043;28;20123;-61
2022/12/27 11:47:02;;;;;;;10.70;2.55;;;6.80;99.90;;;;;;5032327;28;20556;-61
2022/12/27 11:49:37;;;;;;;10.43;2.63;;;6.80;99.90;;;;;;5032237;28;20052;-61
2022/12/27 11:52:58;;;;;;;8.68;2.42;;;6.70;99.90;;;;;;5031337;28;20069;-61
2022/12/27 11:55:45;;;;;;;16.23;3.25;;;6.70;99.90;;;;;;4935795;29;20082;-61
2022/12/27 11:58:33;;;;;;;11.48;3.08;;;6.60;99.90;;;;;;4950888;29;20453;-61
2022/12/27 12:01:18;;;;;;;10.27;2.88;;;6.60;99.90;;;;;;5022870;28;20107;-61
2022/12/27 12:04:24;;;;;;;10.43;3.58;;;6.60;99.90;;;;;;5030150;28;20037;-61
2022/12/27 12:07:14;;;;;;;12.45;3.10;;;6.60;99.90;;;;;;5031210;28;20092;-61
2022/12/27 12:10:19;;;;;;;9.00;2.60;;;6.60;99.90;;;;;;5032135;28;20073;-61
2022/12/27 12:13:05;;;;;;;13.13;3.08;;;6.60;99.90;;;;;;5029789;28;20475;-61
2022/12/27 12:15:58;;;;;;;10.57;2.85;;;6.60;99.90;;;;;;5030617;28;20041;-60
2022/12/27 12:18:30;;;;;;;12.43;3.20;;;6.70;99.90;;;;;;5030781;28;20394;-61
2022/12/27 12:21:23;;;;;;;11.00;4.00;;;6.70;99.90;;;;;;5030144;28;20128;-61
2022/12/27 12:24:24;;;;;;;14.65;3.47;;;6.70;99.90;;;;;;4977989;28;20053;-61
2022/12/27 12:27:01;;;;;;;10.60;2.90;;;6.70;99.90;;;;;;5036197;28;20056;-61
2022/12/27 12:30:01;;;;;;;11.77;3.22;;;6.60;99.90;;;;;;5070453;28;20083;-60
2022/12/27 12:33:04;;;;;;;9.05;2.88;;;6.60;99.90;;;;;;5053467;28;20051;-61
2022/12/27 12:35:48;;;;;;;11.77;3.42;;;6.60;99.90;;;;;;5071841;28;20086;-60
2022/12/27 12:38:21;;;;;;;7.05;2.40;;;6.60;99.90;;;;;;5071368;28;20070;-60
2022/12/27 12:41:01;;;;;;;8.07;2.47;;;6.50;99.90;;;;;;5035955;28;20044;-61
2022/12/27 12:44:10;;;;;;;10.68;3.70;;;6.50;99.90;;;;;;5067867;28;20048;-60
2022/12/27 12:46:54;;;;;;;11.60;2.60;;;6.50;99.90;;;;;;5053842;28;20535;-61
2022/12/27 12:49:49;;;;;;;7.53;2.85;;;6.40;99.90;;;;;;5050734;28;20044;-61
2022/12/27 12:52:21;;;;;;;9.90;3.38;;;6.50;99.90;;;;;;5051593;28;20067;-61
2022/12/27 12:55:01;;;;;;;9.63;2.83;;;6.50;99.90;;;;;;5066945;28;20040;-61
2022/12/27 12:57:57;;;;;;;10.10;4.10;;;6.50;99.90;;;;;;5067863;28;20040;-61
2022/12/27 13:00:39;;;;;;;16.98;4.07;;;6.50;99.90;;;;;;5051171;28;20375;-61
2022/12/27 13:03:14;;;;;;;15.15;3.50;;;6.50;99.90;;;;;;5050096;28;20048;-61
2022/12/27 13:05:48;;;;;;;12.27;4.32;;;6.50;99.90;;;;;;5067933;28;20426;-61
2022/12/27 13:08:39;;;;;;;9.60;3.20;;;6.50;99.90;;;;;;5067775;28;20025;-60
2022/12/27 13:11:24;;;;;;;7.68;2.47;;;6.50;99.90;;;;;;5059801;28;20346;-60
2022/12/27 13:14:31;;;;;;;11.85;2.45;;;6.50;99.90;;;;;;5036066;28;20411;-61
2022/12/27 13:17:24;;;;;;;7.75;2.25;;;6.40;99.90;;;;;;4999158;28;20050;-61
2022/12/27 13:20:29;;;;;;;6.20;2.50;;;6.30;99.90;;;;;;5061993;28;20055;-61
2022/12/27 13:23:25;;;;;;;7.00;2.85;;;6.30;99.90;;;;;;5072932;28;20040;-61
2022/12/27 13:25:53;;;;;;;18.40;3.90;;;6.20;99.90;;;;;;5056760;28;20033;-61
2022/12/27 13:28:47;;;;;;;11.05;2.83;;;6.20;99.90;;;;;;5073170;28;20056;-61
2022/12/27 13:31:35;;;;;;;10.40;3.30;;;6.20;99.90;;;;;;5072404;28;20473;-61
2022/12/27 13:34:34;;;;;;;13.15;4.00;;;6.10;99.90;;;;;;5073218;28;20478;-61
2022/12/27 13:37:23;;;;;;;12.38;3.47;;;6.10;99.90;;;;;;5072349;28;20051;-61
2022/12/27 13:40:08;;;;;;;15.25;3.35;;;6.00;99.90;;;;;;5073133;28;20032;-61
2022/12/27 13:42:54;;;;;;;10.93;3.58;;;6.00;99.90;;;;;;5073385;28;20044;-61
2022/12/27 13:45:32;;;;;;;8.90;3.17;;;5.90;99.90;;;;;;5073566;28;20040;-61
2022/12/27 13:48:01;;;;;;;13.43;3.42;;;5.90;99.90;;;;;;5074163;28;20044;-61
2022/12/27 13:50:39;;;;;;;13.52;3.80;;;5.90;99.90;;;;;;5072037;28;20428;-61
2022/12/27 13:53:36;;;;;;;13.95;4.80;;;5.90;99.90;;;;;;5072612;28;20047;-61
2022/12/27 13:56:43;;;;;;;15.27;3.40;;;5.90;99.90;;;;;;5073967;28;20503;-61
2022/12/27 13:59:43;;;;;;;11.45;3.60;;;5.80;99.90;;;;;;5072354;28;20522;-61
2022/12/27 14:02:36;;;;;;;11.00;3.75;;;5.80;99.90;;;;;;5073758;28;20119;-61
2022/12/27 14:05:20;;;;;;;10.57;3.55;;;5.80;99.90;;;;;;5073258;28;20040;-61
2022/12/27 14:08:02;;;;;;;9.32;3.42;;;5.80;99.90;;;;;;5073775;28;20123;-61
2022/12/27 14:10:35;;;;;;;10.25;3.60;;;5.90;99.90;;;;;;5072473;28;20101;-61
2022/12/27 14:13:06;;;;;;;17.25;4.65;;;5.80;99.90;;;;;;5071743;28;20497;-61
2022/12/27 14:15:41;;;;;;;12.23;4.95;;;5.90;99.90;;;;;;5073959;28;20086;-61
2022/12/27 14:18:25;;;;;;;12.07;4.10;;;5.80;99.90;;;;;;5073200;28;20551;-61
2022/12/27 14:21:02;;;;;;;14.80;4.57;;;5.90;99.90;;;;;;5073536;28;20041;-61
2022/12/27 14:24:10;;;;;;;12.43;4.32;;;5.80;99.90;;;;;;5072115;28;20072;-61
2022/12/27 14:26:58;;;;;;;12.45;4.25;;;5.80;99.90;;;;;;5071867;28;20036;-61
2022/12/27 14:29:38;;;;;;;10.10;4.57;;;5.80;99.90;;;;;;5073276;28;20124;-61
2022/12/27 14:32:28;;;;;;;14.68;4.53;;;5.80;99.90;;;;;;5073395;28;20045;-61
2022/12/27 14:35:15;;;;;;;14.70;5.28;;;5.80;99.90;;;;;;5055549;28;20047;-61
2022/12/27 14:38:16;;;;;;;13.68;6.38;;;5.80;99.90;;;;;;5073229;28;20044;-61
2022/12/27 14:40:47;;;;;;;14.75;6.53;;;5.80;99.90;;;;;;5072421;28;20068;-62
2022/12/27 14:44:14;;;;;;;11.07;5.45;;;5.80;99.90;;;;;;5072154;28;20040;-61
2022/12/27 14:47:07;;;;;;;11.27;4.43;;;5.80;99.90;;;;;;4991216;28;20093;-61
2022/12/27 14:49:58;;;;;;;11.48;5.53;;;5.70;99.90;;;;;;5055685;28;20083;-61
2022/12/27 14:53:01;;;;;;;12.88;4.60;;;5.70;99.90;;;;;;5071655;28;20052;-61
2022/12/27 14:55:51;;;;;;;9.88;5.05;;;5.70;99.90;;;;;;5066382;28;20477;-61
2022/12/27 14:58:28;;;;;;;13.75;5.65;;;5.60;99.90;;;;;;5046924;28;20044;-61
2022/12/27 15:01:03;;;;;;;15.30;5.88;;;5.60;99.90;;;;;;5060145;28;20033;-61
2022/12/27 15:03:46;;;;;;;10.73;6.07;;;5.60;99.90;;;;;;5072310;28;20520;-61
2022/12/27 15:06:30;;;;;;;12.15;6.18;;;5.60;99.90;;;;;;5072742;28;20366;-61
2022/12/27 15:09:23;;;;;;;14.00;5.80;;;5.50;99.90;;;;;;5071691;28;20040;-61